createdAt,value
2023-04-17T00:00:26.369Z,1.63
2023-04-17T00:05:31.918Z,1.70
2023-04-17T00:10:34.959Z,4.70
2023-04-17T00:15:38.159Z,2.10
2023-04-17T00:20:41.418Z,4.87
2023-04-17T00:25:44.476Z,2.97
2023-04-17T00:30:47.374Z,1.47
2023-04-17T00:35:50.470Z,2.37
2023-04-17T00:40:53.841Z,2.93
2023-04-17T00:45:57.510Z,2.10
2023-04-17T00:51:03.474Z,1.20
2023-04-17T00:56:07.109Z,1.57
2023-04-17T01:01:10.293Z,1.80
2023-04-17T01:06:13.309Z,1.47
2023-04-17T01:11:16.262Z,1.27
2023-04-17T01:16:20.935Z,2.47
2023-04-17T01:21:24.038Z,1.63
2023-04-17T01:26:30.894Z,1.90
2023-04-17T01:31:34.394Z,2.27
2023-04-17T01:36:37.313Z,1.97
2023-04-17T01:41:40.625Z,2.87
2023-04-17T01:46:43.580Z,1.93
2023-04-17T01:51:46.566Z,1.97
2023-04-17T01:56:49.508Z,1.60
2023-04-17T02:01:53.465Z,1.10
2023-04-17T02:06:56.366Z,1.93
2023-04-17T02:11:59.303Z,1.83
2023-04-17T02:17:02.543Z,3.03
2023-04-17T02:22:05.690Z,1.90
2023-04-17T02:27:08.561Z,1.23
2023-04-17T02:32:11.513Z,1.53
2023-04-17T02:37:14.613Z,2.87
2023-04-17T02:42:17.539Z,3.50
2023-04-17T02:47:20.586Z,2.43
2023-04-17T02:52:23.957Z,1.70
2023-04-17T02:57:27.269Z,1.60
2023-04-17T03:02:30.664Z,0.90
2023-04-17T03:07:33.971Z,1.53
2023-04-17T03:12:37.351Z,1.57
2023-04-17T03:17:40.544Z,1.73
2023-04-17T03:22:43.533Z,2.60
2023-04-17T03:27:46.811Z,7.73
2023-04-17T03:32:50.403Z,1.40
2023-04-17T03:37:53.529Z,2.73
2023-04-17T03:42:56.539Z,2.37
2023-04-17T03:47:59.531Z,3.00
2023-04-17T03:53:02.601Z,5.40
2023-04-17T03:58:05.551Z,3.00
2023-04-17T04:03:08.645Z,1.97
2023-04-17T04:08:11.620Z,1.90
2023-04-17T04:13:14.570Z,2.53
2023-04-17T04:18:17.554Z,2.37
2023-04-17T04:23:21.290Z,2.50
2023-04-17T04:28:24.523Z,3.60
2023-04-17T04:33:27.731Z,5.50
2023-04-17T04:38:31.173Z,2.27
2023-04-17T04:43:34.279Z,3.37
2023-04-17T04:48:37.721Z,2.87
2023-04-17T04:53:41.626Z,2.50
2023-04-17T04:58:44.574Z,2.30
2023-04-17T05:03:47.792Z,3.10
2023-04-17T05:08:52.105Z,3.20
2023-04-17T05:13:54.824Z,3.57
2023-04-17T05:18:59.020Z,3.00
2023-04-17T05:24:02.063Z,4.57
2023-04-17T05:29:05.156Z,4.27
2023-04-17T05:34:08.602Z,3.73
2023-04-17T05:39:11.880Z,4.33
2023-04-17T05:44:14.956Z,6.27
2023-04-17T05:49:18.092Z,4.93
2023-04-17T05:54:21.078Z,2.50
2023-04-17T05:59:24.024Z,2.20
2023-04-17T06:04:27.181Z,3.30
2023-04-17T06:09:30.378Z,3.43
2023-04-17T06:14:33.527Z,4.47
2023-04-17T06:19:36.552Z,2.57
2023-04-17T06:24:39.456Z,2.67
2023-04-17T06:29:42.283Z,3.10
2023-04-17T06:34:58.593Z,2.67
2023-04-17T06:40:02.685Z,2.58
2023-04-17T06:45:07.059Z,3.92
2023-04-17T06:50:10.542Z,2.42
2023-04-17T06:55:13.722Z,3.78
2023-04-17T07:00:17.219Z,3.97
2023-04-17T07:05:20.336Z,2.40
2023-04-17T07:10:23.620Z,4.45
2023-04-17T07:15:30.636Z,2.97
2023-04-17T07:20:33.793Z,3.15
2023-04-17T07:25:36.730Z,2.67
2023-04-17T07:30:39.756Z,2.03
2023-04-17T07:35:43.981Z,3.13
2023-04-17T07:40:46.991Z,1.95
2023-04-17T07:45:50.103Z,5.03
2023-04-17T07:50:53.522Z,2.65
2023-04-17T07:55:58.413Z,3.08
2023-04-17T08:01:05.629Z,2.63
2023-04-17T08:06:08.659Z,3.28
2023-04-17T08:11:11.677Z,4.03
2023-04-17T08:16:14.852Z,3.08
2023-04-17T08:21:17.900Z,2.40
2023-04-17T08:26:20.936Z,2.83
2023-04-17T08:31:23.916Z,4.72
2023-04-17T08:36:27.569Z,3.22
2023-04-17T08:41:39.453Z,3.20
2023-04-17T08:46:42.733Z,3.00
2023-04-17T08:51:47.243Z,2.60
2023-04-17T08:56:50.714Z,2.63
2023-04-17T09:02:05.068Z,4.40
2023-04-17T09:07:11.198Z,2.45
2023-04-17T09:12:14.807Z,2.85
2023-04-17T09:17:20.289Z,3.40
2023-04-17T09:22:23.384Z,2.72
2023-04-17T09:27:28.127Z,3.42
2023-04-17T09:32:33.055Z,4.07
2023-04-17T09:37:51.608Z,2.17
2023-04-17T09:43:00.372Z,3.17
2023-04-17T09:48:13.036Z,2.63
2023-04-17T09:53:18.308Z,2.35
2023-04-17T09:58:22.262Z,2.78
2023-04-17T10:03:26.463Z,3.08
2023-04-17T10:08:29.578Z,2.65
2023-04-17T10:13:38.789Z,5.25
2023-04-17T10:18:42.117Z,2.70
2023-04-17T10:23:45.324Z,2.17
2023-04-17T10:28:50.046Z,3.60
2023-04-17T10:33:54.629Z,3.55
2023-04-17T10:39:16.422Z,2.65
2023-04-17T10:44:19.413Z,2.17
2023-04-17T10:49:22.420Z,2.72
2023-04-17T10:54:25.507Z,3.47
2023-04-17T10:59:30.285Z,4.13
2023-04-17T11:04:36.122Z,3.47
2023-04-17T11:09:40.042Z,3.00
2023-04-17T11:14:44.013Z,3.67
2023-04-17T11:19:47.905Z,2.75
2023-04-17T11:24:51.827Z,4.97
2023-04-17T11:29:54.951Z,3.25
2023-04-17T11:34:58.117Z,4.97
2023-04-17T11:40:10.267Z,2.25
2023-04-17T11:45:13.365Z,2.78
2023-04-17T11:50:16.461Z,2.40
2023-04-17T11:55:19.615Z,2.13
2023-04-17T12:00:27.587Z,1.40
2023-04-17T12:05:31.506Z,3.75
2023-04-17T12:10:40.968Z,1.80
2023-04-17T12:15:44.022Z,1.50
2023-04-17T12:20:48.661Z,3.20
2023-04-17T12:25:51.646Z,1.88
2023-04-17T12:30:54.461Z,2.45
2023-04-17T12:35:57.949Z,2.22
2023-04-17T12:41:01.048Z,4.05
2023-04-17T12:46:04.554Z,3.70
2023-04-17T12:51:11.663Z,2.75
2023-04-17T12:56:15.239Z,3.38
2023-04-17T13:01:18.498Z,2.60
2023-04-17T13:06:21.588Z,31.92
2023-04-17T13:11:24.772Z,3.80
2023-04-17T13:16:27.846Z,1.90
2023-04-17T13:21:31.173Z,3.00
2023-04-17T13:26:36.597Z,4.15
2023-04-17T13:31:39.576Z,5.70
2023-04-17T13:36:45.097Z,6.70
2023-04-17T13:41:48.573Z,5.05
2023-04-17T13:46:52.316Z,4.65
2023-04-17T13:51:55.605Z,4.53
2023-04-17T13:56:58.736Z,3.85
2023-04-17T14:02:04.180Z,3.53
2023-04-17T14:07:08.299Z,4.32
2023-04-17T14:12:11.198Z,4.88
2023-04-17T14:17:14.248Z,4.82
2023-04-17T14:22:17.263Z,4.85
2023-04-17T14:27:20.301Z,4.80
2023-04-17T14:32:23.434Z,5.85
2023-04-17T14:37:28.063Z,3.88
2023-04-17T14:42:32.695Z,3.70
2023-04-17T14:47:39.268Z,3.45
2023-04-17T14:52:42.274Z,5.18
2023-04-17T14:57:45.113Z,3.95
2023-04-17T15:02:49.191Z,7.93
2023-04-17T15:07:53.506Z,19.27
2023-04-17T15:13:00.253Z,18.15
2023-04-17T15:18:03.280Z,7.97
2023-04-17T15:23:06.421Z,5.43
2023-04-17T15:28:09.785Z,3.50
2023-04-17T15:33:14.104Z,4.55
2023-04-17T15:38:17.052Z,5.30
2023-04-17T15:43:21.186Z,4.15
2023-04-17T15:48:24.115Z,5.63
2023-04-17T15:53:27.032Z,11.38
2023-04-17T15:58:30.143Z,9.95
2023-04-17T16:03:33.517Z,7.53
2023-04-17T16:08:37.394Z,5.38
2023-04-17T16:13:40.539Z,7.57
2023-04-17T16:18:46.883Z,6.15
2023-04-17T16:23:50.015Z,5.25
2023-04-17T16:28:53.004Z,7.90
2023-04-17T16:33:56.172Z,6.60
2023-04-17T16:38:59.182Z,6.28
2023-04-17T16:44:02.139Z,5.05
2023-04-17T16:49:10.034Z,4.53
2023-04-17T16:54:13.652Z,6.47
2023-04-17T16:59:16.822Z,5.07
2023-04-17T17:04:19.975Z,7.35
2023-04-17T17:09:23.158Z,9.50
2023-04-17T17:14:26.167Z,6.13
2023-04-17T17:19:29.139Z,4.38
2023-04-17T17:24:32.400Z,4.10
2023-04-17T17:29:35.935Z,5.55
2023-04-17T17:34:39.252Z,4.88
2023-04-17T17:39:42.210Z,3.88
2023-04-17T17:44:45.784Z,12.32
2023-04-17T17:49:49.470Z,16.60
2023-04-17T17:54:52.820Z,27.17
2023-04-17T17:59:55.901Z,22.65
2023-04-17T18:04:58.957Z,17.07
2023-04-17T18:10:02.115Z,15.27
2023-04-17T18:15:06.406Z,11.77
2023-04-17T18:20:11.871Z,13.93
2023-04-17T18:25:15.111Z,11.75
2023-04-17T18:30:18.447Z,16.67
2023-04-17T18:35:21.270Z,15.03
2023-04-17T18:40:24.666Z,10.73
2023-04-17T18:45:29.329Z,6.67
2023-04-17T18:50:33.270Z,5.87
2023-04-17T18:55:39.650Z,5.80
2023-04-17T19:00:43.060Z,7.10
2023-04-17T19:05:46.527Z,4.07
2023-04-17T19:10:49.833Z,4.75
2023-04-17T19:15:53.037Z,4.25
2023-04-17T19:20:56.424Z,5.05
2023-04-17T19:25:59.397Z,3.40
2023-04-17T19:31:06.264Z,4.05
2023-04-17T19:36:09.379Z,2.83
2023-04-17T19:41:19.771Z,3.47
2023-04-17T19:46:24.596Z,3.10
2023-04-17T19:51:27.927Z,4.03
2023-04-17T19:56:31.157Z,4.60
2023-04-17T20:01:35.488Z,3.80
2023-04-17T20:06:39.736Z,3.17
2023-04-17T20:11:43.056Z,4.30
2023-04-17T20:16:46.654Z,3.53
2023-04-17T20:21:49.458Z,3.67
2023-04-17T20:26:53.204Z,2.90
2023-04-17T20:31:56.062Z,2.85
2023-04-17T20:36:58.998Z,2.30
2023-04-17T20:42:02.025Z,2.92
2023-04-17T20:47:05.666Z,2.40
2023-04-17T20:52:08.677Z,2.33
2023-04-17T20:57:11.650Z,3.67
2023-04-17T21:02:16.262Z,2.87
2023-04-17T21:07:19.854Z,2.97
2023-04-17T21:12:23.195Z,3.60
2023-04-17T21:17:26.242Z,3.23
2023-04-17T21:22:29.235Z,2.87
2023-04-17T21:27:32.236Z,3.30
2023-04-17T21:32:35.218Z,3.70
2023-04-17T21:37:38.369Z,2.97
2023-04-17T21:42:41.411Z,3.77
2023-04-17T21:47:45.331Z,3.17
2023-04-17T21:52:48.475Z,3.33
2023-04-17T21:57:51.752Z,2.73
2023-04-17T22:02:54.754Z,4.83
2023-04-17T22:07:57.815Z,4.53
2023-04-17T22:13:00.916Z,2.50
2023-04-17T22:18:04.219Z,2.67
2023-04-17T22:23:07.636Z,2.53
2023-04-17T22:28:10.613Z,4.30
2023-04-17T22:33:13.583Z,2.40
2023-04-17T22:38:18.264Z,2.30
2023-04-17T22:43:21.221Z,2.23
2023-04-17T22:48:24.628Z,2.27
2023-04-17T22:53:27.799Z,3.20
2023-04-17T22:58:33.955Z,2.20
2023-04-17T23:03:37.267Z,2.53
2023-04-17T23:08:40.372Z,3.20
2023-04-17T23:13:43.671Z,2.60
2023-04-17T23:18:46.695Z,3.83
2023-04-17T23:23:49.566Z,3.63
2023-04-17T23:28:52.557Z,3.10
2023-04-17T23:33:55.331Z,2.43
2023-04-17T23:38:58.283Z,3.03
2023-04-17T23:44:01.322Z,3.50
2023-04-17T23:49:05.152Z,3.77
2023-04-17T23:54:08.217Z,3.77
2023-04-17T23:59:11.657Z,4.33
